Miami, Florida
Traffic Map
Current Weather Conditions
Miami, Florida
Clear
Clear
79°
Feels Like: 79°
Wind Chill: 79° Ceiling: Unl
Heat Index: 79° Visibility: 10mi
Dew Point: 49° Wind: 5mph
Humidity: 35% Direction: ° ()
Pressure: 30.1in Gusts: 0mph
Raw Report DataKMIA 171953Z VRB04KT 10SM CLR 26/09 A3010 RMK AO2 SLP194 T02610094
Traffic Incident Summary
Active as of:
Severity:
Category:
InformationThere was an issue retrieving the traffic information for this location. Please try a different location or try again shortly.
Advertisements
Track Severe Weather on mobile